Time;durP1;ratioP1;P1;durP2;ratioP2;P2;SDS_P1;SDS_P2;PMS_P1;PMS_P2;Temp;Humidity;BMP_temperature;BMP_pressure;BME280_temperature;BME280_humidity;BME280_pressure;Samples;Min_cycle;Max_cycle;Signal;HPM_P1;HPM_P2
2022/09/12 00:02:00;;;;;;;8.02;4.85;;;18.00;91.10;;;;;;5078040;28;20020;-70
2022/09/12 00:04:27;;;;;;;10.20;4.60;;;18.00;91.20;;;;;;5101249;28;20031;-70
2022/09/12 00:06:52;;;;;;;11.70;4.97;;;18.00;91.10;;;;;;5065423;28;20385;-70
2022/09/12 00:09:18;;;;;;;7.35;4.75;;;18.00;91.50;;;;;;5075327;28;20032;-70
2022/09/12 00:11:45;;;;;;;5.13;4.38;;;18.00;91.10;;;;;;5084365;28;20021;-70
2022/09/12 00:14:15;;;;;;;6.30;4.68;;;17.90;91.10;;;;;;5092147;28;20020;-71
2022/09/12 00:16:40;;;;;;;6.50;4.85;;;18.00;91.10;;;;;;5079902;28;20059;-70
2022/09/12 00:19:07;;;;;;;8.32;4.60;;;18.00;91.10;;;;;;5095824;28;20088;-70
2022/09/12 00:21:35;;;;;;;7.93;4.97;;;17.90;91.10;;;;;;5103054;28;20024;-71
2022/09/12 00:24:01;;;;;;;8.73;4.40;;;17.90;91.10;;;;;;5080381;28;20647;-70
2022/09/12 00:26:27;;;;;;;10.75;5.20;;;17.90;91.10;;;;;;5055644;28;20055;-70
2022/09/12 00:28:52;;;;;;;9.88;4.60;;;17.90;91.10;;;;;;5062908;28;20271;-70
2022/09/12 00:31:22;;;;;;;8.77;5.57;;;17.90;91.10;;;;;;5062555;28;20027;-71
2022/09/12 00:33:48;;;;;;;;;;;17.90;91.10;;;;;;5109901;28;20058;-70
2022/09/12 00:36:17;;;;;;;9.00;5.15;;;17.90;91.10;;;;;;5099317;28;20364;-70
2022/09/12 00:38:44;;;;;;;14.35;6.53;;;17.90;91.10;;;;;;5062017;28;20033;-71
2022/09/12 00:41:33;;;;;;;11.02;5.38;;;17.90;91.10;;;;;;5076685;28;20027;-70
2022/09/12 00:44:21;;;;;;;8.68;5.28;;;17.90;91.10;;;;;;5079562;28;20029;-70
2022/09/12 00:46:51;;;;;;;11.00;5.82;;;17.90;91.10;;;;;;5064676;28;20031;-70
2022/09/12 00:49:34;;;;;;;11.00;6.13;;;17.90;91.10;;;;;;5091128;28;20057;-70
2022/09/12 00:52:02;;;;;;;10.10;5.75;;;17.80;91.10;;;;;;5062308;28;20214;-70
2022/09/12 00:54:32;;;;;;;12.18;5.93;;;17.80;91.10;;;;;;5091365;28;20025;-70
2022/09/12 00:57:02;;;;;;;8.35;5.70;;;17.80;91.10;;;;;;5085473;28;20024;-71
2022/09/12 00:59:39;;;;;;;7.97;5.47;;;17.80;91.10;;;;;;5102311;28;20120;-71
2022/09/12 01:02:06;;;;;;;9.95;5.80;;;17.80;91.10;;;;;;5099916;28;20028;-70
2022/09/12 01:04:31;;;;;;;6.95;4.85;;;17.80;91.10;;;;;;5101015;28;20177;-70
2022/09/12 01:06:57;;;;;;;10.32;6.00;;;17.80;91.10;;;;;;5084587;28;20548;-70
2022/09/12 01:09:24;;;;;;;8.43;5.43;;;17.80;91.10;;;;;;5092554;28;20036;-71
2022/09/12 01:11:51;;;;;;;6.07;5.13;;;17.80;91.10;;;;;;5103076;28;20055;-70
2022/09/12 01:14:18;;;;;;;6.95;5.20;;;17.80;91.50;;;;;;5085147;28;20024;-70
2022/09/12 01:16:46;;;;;;;7.60;5.53;;;17.80;91.10;;;;;;5099188;28;20049;-70
2022/09/12 01:19:45;;;;;;;10.55;5.88;;;17.80;91.10;;;;;;5099627;28;20123;-70
2022/09/12 01:22:25;;;;;;;10.52;6.65;;;17.80;91.10;;;;;;5078965;28;20032;-70
2022/09/12 03:33:59;;;;;;;7.53;5.07;;;17.60;91.00;;;;;;4993973;28;20458;-67
2022/09/12 04:31:21;;;;;;;15.35;6.85;;;17.40;90.80;;;;;;5030179;28;20036;-67
2022/09/12 07:51:36;;;;;;;19.35;10.00;;;18.20;90.00;;;;;;5056874;28;20040;-72
2022/09/12 07:54:07;;;;;;;23.17;11.95;;;18.30;90.00;;;;;;5028229;28;20041;-72
2022/09/12 07:56:33;;;;;;;24.80;12.13;;;18.40;90.10;;;;;;5028971;28;20028;-71
2022/09/12 07:58:59;;;;;;;26.20;12.80;;;18.50;90.10;;;;;;5031524;28;20363;-71
2022/09/12 08:01:25;;;;;;;29.50;12.60;;;18.60;90.10;;;;;;5049528;28;20029;-72
2022/09/12 08:03:56;;;;;;;26.73;12.60;;;18.60;90.10;;;;;;5038499;28;20033;-71
2022/09/12 08:06:23;;;;;;;29.33;13.05;;;18.70;90.00;;;;;;5033328;28;20370;-72
2022/09/12 08:08:49;;;;;;;21.70;10.90;;;18.80;89.90;;;;;;5034675;28;20025;-71
2022/09/12 08:11:17;;;;;;;25.55;12.57;;;18.80;89.70;;;;;;5035031;28;20056;-71
2022/09/12 08:13:44;;;;;;;29.13;13.50;;;18.90;89.40;;;;;;5033909;28;20496;-71
2022/09/12 08:16:16;;;;;;;25.38;12.48;;;19.00;89.20;;;;;;5034172;28;20021;-72
2022/09/12 08:18:42;;;;;;;28.00;11.73;;;19.00;88.90;;;;;;5027589;28;20029;-72
2022/09/12 08:21:14;;;;;;;24.85;10.95;;;19.10;88.70;;;;;;5052499;28;20090;-72
2022/09/12 08:23:41;;;;;;;21.55;10.23;;;19.10;88.50;;;;;;5052886;28;20024;-71
2022/09/12 08:26:07;;;;;;;20.15;8.70;;;19.20;88.30;;;;;;5051777;28;20017;-72
2022/09/12 08:28:34;;;;;;;19.98;9.68;;;19.20;88.10;;;;;;5034104;28;20433;-72
2022/09/12 08:31:04;;;;;;;23.10;10.05;;;19.30;87.90;;;;;;5052484;28;20104;-72
2022/09/12 08:33:33;;;;;;;17.02;8.25;;;19.30;87.70;;;;;;5051179;28;20086;-72
2022/09/12 08:36:29;;;;;;;20.13;9.50;;;19.40;87.50;;;;;;5052011;28;20032;-72
2022/09/12 08:38:58;;;;;;;17.38;8.25;;;19.40;87.40;;;;;;5040533;28;20045;-72
2022/09/12 08:41:33;;;;;;;16.17;7.78;;;19.50;87.20;;;;;;5052359;28;20057;-72
2022/09/12 08:44:19;;;;;;;15.15;6.60;;;19.50;87.00;;;;;;5045146;28;20117;-72
2022/09/12 08:47:03;;;;;;;14.93;6.55;;;19.50;86.80;;;;;;5051667;28;20028;-72
2022/09/12 08:49:47;;;;;;;10.80;6.22;;;19.50;86.60;;;;;;5034792;28;20020;-71
2022/09/12 08:52:50;;;;;;;12.32;7.38;;;19.60;86.50;;;;;;5053588;28;20355;-72
2022/09/12 08:55:27;;;;;;;12.52;6.20;;;19.70;86.40;;;;;;5009303;28;20045;-72
2022/09/12 08:57:53;;;;;;;10.40;6.25;;;19.70;86.20;;;;;;5050964;28;20116;-72
2022/09/12 09:00:20;;;;;;;11.50;6.00;;;19.70;86.10;;;;;;5052110;28;20482;-72
2022/09/12 09:03:07;;;;;;;12.77;5.55;;;19.70;85.90;;;;;;5045336;28;20029;-72
2022/09/12 09:05:50;;;;;;;8.68;4.78;;;19.80;85.90;;;;;;5048880;28;20111;-72
2022/09/12 09:08:34;;;;;;;13.48;5.60;;;19.80;85.80;;;;;;5033013;28;20078;-72
2022/09/12 09:11:25;;;;;;;9.48;4.50;;;19.80;85.70;;;;;;5044088;28;20017;-72
2022/09/12 09:21:03;;;;;;;6.22;3.78;;;19.80;85.50;;;;;;5052896;28;20500;-72
2022/09/12 09:23:39;;;;;;;7.28;3.90;;;19.80;85.50;;;;;;4950900;29;20039;-72
2022/09/12 09:26:25;;;;;;;5.78;3.67;;;19.80;85.40;;;;;;4933718;29;20047;-72
2022/09/12 09:29:14;;;;;;;5.80;3.67;;;19.80;85.50;;;;;;4942313;29;20042;-72
2022/09/12 09:31:41;;;;;;;4.60;2.78;;;19.80;85.60;;;;;;4934595;29;20035;-72
2022/09/12 09:34:18;;;;;;;4.68;3.13;;;19.80;85.60;;;;;;4935796;29;20054;-72
2022/09/12 09:37:03;;;;;;;6.43;3.63;;;19.80;85.70;;;;;;4949687;29;20027;-72
2022/09/12 09:39:44;;;;;;;4.00;2.95;;;19.70;85.70;;;;;;4934237;29;20118;-72
2022/09/12 09:42:21;;;;;;;5.15;3.00;;;19.70;85.80;;;;;;4934472;29;20066;-72
2022/09/12 09:44:47;;;;;;;3.35;2.58;;;19.70;85.90;;;;;;4950747;29;20019;-72
2022/09/12 09:47:14;;;;;;;3.20;2.45;;;19.70;85.90;;;;;;4949599;29;20046;-72
2022/09/12 09:49:40;;;;;;;4.00;2.42;;;19.60;85.90;;;;;;4949183;29;20289;-72
2022/09/12 09:52:07;;;;;;;2.90;2.00;;;19.60;86.10;;;;;;4933862;29;20075;-72
2022/09/12 09:54:41;;;;;;;3.38;2.22;;;19.60;86.10;;;;;;4950495;29;20031;-72
2022/09/12 09:57:34;;;;;;;2.95;2.42;;;19.60;86.20;;;;;;4918409;29;20028;-72
2022/09/12 10:00:29;;;;;;;3.83;2.53;;;19.50;86.20;;;;;;5039998;28;20065;-72
2022/09/12 10:03:01;;;;;;;3.35;2.70;;;19.60;86.40;;;;;;5031633;28;20029;-71
2022/09/12 10:05:28;;;;;;;7.63;2.75;;;19.50;86.40;;;;;;5032618;28;20032;-72
2022/09/12 10:07:54;;;;;;;4.63;2.92;;;19.50;86.50;;;;;;5031851;28;20490;-72
2022/09/12 10:10:22;;;;;;;5.57;3.40;;;19.50;86.60;;;;;;5050515;28;20167;-72
2022/09/12 10:12:48;;;;;;;6.03;3.50;;;19.40;86.60;;;;;;5032509;28;20017;-71
2022/09/12 10:15:20;;;;;;;4.55;3.33;;;19.40;86.70;;;;;;5050523;28;20032;-72
2022/09/12 10:17:50;;;;;;;4.30;3.00;;;19.40;86.70;;;;;;5048119;28;20575;-72
2022/09/12 10:20:29;;;;;;;4.32;3.17;;;19.40;86.80;;;;;;5043661;28;20231;-71
2022/09/12 10:22:57;;;;;;;3.83;2.47;;;19.40;86.90;;;;;;5050046;28;20033;-71
2022/09/12 10:25:24;;;;;;;4.63;3.17;;;19.40;87.00;;;;;;5050080;28;20021;-71
2022/09/12 10:27:59;;;;;;;6.45;2.83;;;19.40;87.10;;;;;;5049530;28;20033;-71
2022/09/12 10:30:29;;;;;;;6.53;2.58;;;19.30;87.20;;;;;;5050545;28;20074;-72
2022/09/12 10:33:07;;;;;;;3.67;2.90;;;19.30;87.20;;;;;;5029387;28;20075;-72
2022/09/12 10:35:45;;;;;;;4.75;3.03;;;19.30;87.30;;;;;;5049993;28;20025;-72
2022/09/12 10:38:25;;;;;;;4.00;2.53;;;19.30;87.40;;;;;;5041486;28;20081;-72
2022/09/12 10:41:07;;;;;;;2.70;2.25;;;19.30;87.40;;;;;;5032226;28;20557;-71
2022/09/12 10:43:32;;;;;;;5.68;2.15;;;19.30;87.50;;;;;;5032215;28;20021;-72
2022/09/12 10:46:19;;;;;;;6.30;2.13;;;19.20;87.50;;;;;;5031395;28;20021;-72
2022/09/12 10:49:13;;;;;;;3.33;2.03;;;19.20;87.60;;;;;;5042989;28;20481;-72
2022/09/12 10:51:38;;;;;;;5.78;2.78;;;19.20;87.60;;;;;;5031800;28;20017;-71
2022/09/12 10:54:07;;;;;;;3.42;2.22;;;19.20;87.70;;;;;;5049780;28;20044;-71
2022/09/12 10:57:02;;;;;;;8.47;2.20;;;19.20;87.70;;;;;;5027806;28;20052;-71
2022/09/12 10:59:45;;;;;;;2.75;1.90;;;19.20;87.80;;;;;;5043519;28;20370;-71
2022/09/12 11:02:34;;;;;;;4.47;2.00;;;19.20;87.80;;;;;;5041821;28;20420;-72
2022/09/12 11:05:24;;;;;;;3.72;2.10;;;19.20;87.80;;;;;;5048170;28;20029;-72
2022/09/12 11:08:21;;;;;;;4.32;2.00;;;19.20;87.90;;;;;;5030902;28;20025;-72
2022/09/12 11:11:03;;;;;;;2.50;1.80;;;19.20;88.00;;;;;;5031905;28;20025;-71
2022/09/12 11:13:47;;;;;;;2.78;1.85;;;19.20;88.00;;;;;;5043953;28;20104;-71
2022/09/12 11:16:31;;;;;;;4.05;1.95;;;19.20;88.00;;;;;;5049148;28;20017;-72
2022/09/12 11:19:36;;;;;;;2.40;2.03;;;19.20;88.10;;;;;;5044056;28;20017;-72
2022/09/12 11:22:16;;;;;;;3.85;2.20;;;19.20;88.10;;;;;;5049582;28;20091;-71
2022/09/12 11:25:00;;;;;;;;;;;19.20;88.20;;;;;;5050372;28;20060;-71
2022/09/12 11:27:31;;;;;;;4.75;1.90;;;19.10;88.10;;;;;;5029218;28;19905;-71
2022/09/12 11:30:12;;;;;;;3.65;2.45;;;19.10;88.20;;;;;;5028924;28;20155;-71
2022/09/12 11:33:26;;;;;;;2.72;1.85;;;19.20;88.20;;;;;;5049728;28;20028;-71
2022/09/12 11:35:52;;;;;;;2.45;1.58;;;19.10;88.20;;;;;;4951720;28;20516;-72
2022/09/12 11:38:29;;;;;;;4.47;2.38;;;19.10;88.20;;;;;;4967970;28;20114;-71
2022/09/12 11:41:05;;;;;;;3.92;2.05;;;19.10;88.20;;;;;;4970261;28;20142;-72
2022/09/12 11:43:51;;;;;;;3.58;2.13;;;19.10;88.20;;;;;;4971855;28;20027;-71
2022/09/12 11:46:20;;;;;;;2.80;2.17;;;19.10;88.30;;;;;;4970978;28;20093;-71
2022/09/12 11:48:54;;;;;;;3.60;2.00;;;19.10;88.20;;;;;;4970800;28;21274;-71
2022/09/12 11:51:45;;;;;;;3.20;1.90;;;19.20;88.30;;;;;;4963999;28;20028;-72
2022/09/12 11:54:24;;;;;;;3.40;1.95;;;19.10;89.10;;;;;;4934724;28;20468;-72
2022/09/12 11:57:03;;;;;;;6.57;2.63;;;19.10;88.40;;;;;;4970711;28;20498;-73
2022/09/12 11:59:39;;;;;;;4.05;2.60;;;19.10;88.40;;;;;;4971246;28;20503;-71
2022/09/12 12:02:13;;;;;;;5.57;2.53;;;19.10;88.40;;;;;;4971443;28;20023;-71
2022/09/12 12:04:58;;;;;;;2.65;2.15;;;19.10;89.20;;;;;;4973993;28;20548;-71
2022/09/12 12:07:24;;;;;;;3.00;2.10;;;19.20;88.60;;;;;;4946463;28;20037;-72
2022/09/12 12:09:51;;;;;;;5.05;2.55;;;19.10;88.50;;;;;;4971588;28;20083;-71
2022/09/12 12:12:23;;;;;;;3.55;2.90;;;19.20;88.60;;;;;;5004828;28;20031;-71
2022/09/12 12:14:52;;;;;;;4.75;2.90;;;19.20;88.70;;;;;;5035059;28;20083;-71
2022/09/12 12:17:24;;;;;;;2.75;1.98;;;19.20;88.70;;;;;;5051968;28;20021;-71
2022/09/12 12:20:03;;;;;;;3.03;2.10;;;19.20;89.40;;;;;;5050849;28;20033;-72
2022/09/12 12:22:30;;;;;;;3.65;2.67;;;19.20;88.70;;;;;;5045138;28;20017;-71
2022/09/12 12:25:23;;;;;;;2.90;2.60;;;19.20;88.70;;;;;;5052617;28;20029;-71
2022/09/12 12:28:00;;;;;;;3.40;2.13;;;19.20;88.80;;;;;;5046864;28;20104;-71
2022/09/12 12:30:28;;;;;;;3.45;2.65;;;19.20;88.80;;;;;;5052659;28;20105;-71
2022/09/12 12:33:11;;;;;;;5.07;3.15;;;19.20;88.90;;;;;;5052605;28;20035;-71
2022/09/12 12:35:45;;;;;;;3.78;2.35;;;19.20;88.90;;;;;;5027967;28;20478;-71
2022/09/12 12:38:31;;;;;;;4.53;2.50;;;19.20;88.90;;;;;;5033240;28;20173;-71
2022/09/12 12:41:15;;;;;;;3.85;2.53;;;19.20;88.90;;;;;;5052214;28;20548;-71
2022/09/12 12:43:46;;;;;;;5.25;3.05;;;19.20;88.90;;;;;;5028681;28;20051;-71
2022/09/12 12:46:17;;;;;;;3.65;2.55;;;19.20;89.00;;;;;;5033343;28;20021;-72
2022/09/12 12:48:51;;;;;;;3.97;2.60;;;19.20;89.00;;;;;;5052017;28;20051;-71
2022/09/12 12:51:41;;;;;;;4.90;2.92;;;19.20;89.00;;;;;;5049784;28;20131;-71
2022/09/12 12:54:28;;;;;;;6.35;3.38;;;19.20;89.10;;;;;;5051821;28;20456;-71
2022/09/12 12:57:12;;;;;;;4.97;2.90;;;19.20;89.10;;;;;;5051403;28;20025;-71
2022/09/12 12:59:50;;;;;;;4.25;3.03;;;19.20;89.10;;;;;;5051588;28;20079;-71
2022/09/12 13:02:41;;;;;;;5.43;2.88;;;19.20;89.10;;;;;;5051889;28;20104;-71
2022/09/12 13:05:20;;;;;;;5.22;2.58;;;19.20;89.20;;;;;;5049876;28;20048;-71
2022/09/12 13:07:52;;;;;;;2.75;1.77;;;19.20;89.20;;;;;;5050401;28;20508;-71
2022/09/12 13:10:36;;;;;;;3.63;1.60;;;19.20;89.20;;;;;;5033788;28;20025;-71
2022/09/12 13:13:07;;;;;;;2.22;1.73;;;19.20;89.20;;;;;;5052163;28;20544;-71
2022/09/12 13:15:35;;;;;;;2.17;1.80;;;19.20;89.30;;;;;;5043888;28;20025;-71
2022/09/12 13:18:09;;;;;;;4.57;1.90;;;19.20;89.30;;;;;;5050493;28;20508;-71
2022/09/12 13:20:46;;;;;;;6.82;1.90;;;19.20;89.30;;;;;;5036369;28;20029;-71
2022/09/12 13:23:29;;;;;;;2.38;1.90;;;19.20;89.30;;;;;;5051265;28;20036;-72
2022/09/12 13:25:57;;;;;;;3.03;1.85;;;19.20;89.40;;;;;;5050812;28;20025;-71
2022/09/12 13:28:26;;;;;;;4.93;1.50;;;19.20;89.40;;;;;;5050784;28;20056;-71
2022/09/12 13:31:02;;;;;;;2.53;1.70;;;19.20;89.40;;;;;;5032645;28;20037;-71
2022/09/12 13:33:45;;;;;;;2.30;1.63;;;19.20;89.40;;;;;;5051363;28;20040;-71
2022/09/12 13:36:31;;;;;;;7.05;1.60;;;19.20;89.50;;;;;;5023002;28;20033;-71
2022/09/12 13:39:15;;;;;;;1.92;1.70;;;19.30;89.50;;;;;;5050698;28;20509;-72
2022/09/12 13:42:08;;;;;;;2.05;1.60;;;19.20;89.60;;;;;;5051137;28;20416;-71
2022/09/12 13:44:43;;;;;;;2.90;1.92;;;19.30;89.60;;;;;;5042895;28;20108;-71
2022/09/12 13:47:15;;;;;;;1.63;1.48;;;19.20;89.60;;;;;;5031931;28;20037;-72
2022/09/12 13:49:41;;;;;;;1.52;1.42;;;19.20;89.60;;;;;;5050101;28;20009;-71
2022/09/12 13:52:19;;;;;;;4.25;1.40;;;19.20;89.60;;;;;;5050429;28;20025;-72
2022/09/12 13:54:48;;;;;;;1.60;1.40;;;19.20;89.60;;;;;;5043068;28;20053;-71
2022/09/12 13:57:38;;;;;;;1.92;1.35;;;19.20;89.60;;;;;;5052804;28;20083;-71
2022/09/12 14:00:12;;;;;;;;;;;19.30;89.50;;;;;;5051055;28;20119;-71
2022/09/12 14:02:39;;;;;;;3.83;1.55;;;19.30;89.50;;;;;;5042211;28;19912;-71
2022/09/12 14:05:23;;;;;;;1.40;1.30;;;19.30;89.50;;;;;;5031720;28;20044;-71
2022/09/12 14:07:55;;;;;;;2.00;1.38;;;19.20;89.40;;;;;;5022244;28;20025;-71
2022/09/12 14:10:30;;;;;;;1.20;1.08;;;19.30;89.50;;;;;;5039686;28;20029;-71
2022/09/12 14:12:58;;;;;;;1.50;1.40;;;19.20;89.50;;;;;;5030907;28;20037;-71
2022/09/12 14:15:28;;;;;;;2.30;1.35;;;19.20;89.50;;;;;;5050292;28;20025;-71
2022/09/12 14:17:58;;;;;;;2.08;1.33;;;19.20;89.50;;;;;;5049097;28;20043;-71
2022/09/12 14:20:25;;;;;;;2.10;1.38;;;19.20;89.50;;;;;;5029195;28;20033;-71
2022/09/12 14:22:51;;;;;;;1.23;1.15;;;19.20;89.60;;;;;;5050269;28;20049;-71
2022/09/12 14:25:23;;;;;;;1.65;1.30;;;19.20;89.60;;;;;;5050191;28;20051;-71
2022/09/12 14:27:54;;;;;;;1.30;1.20;;;19.30;89.70;;;;;;5049382;28;20028;-71
2022/09/12 14:30:29;;;;;;;1.92;1.50;;;19.20;89.60;;;;;;5029226;28;20021;-71
2022/09/12 14:33:16;;;;;;;1.42;1.33;;;19.20;89.60;;;;;;5050257;28;20039;-71
2022/09/12 14:35:42;;;;;;;1.55;1.40;;;19.20;89.40;;;;;;5040875;28;20052;-71
2022/09/12 14:38:14;;;;;;;4.80;1.30;;;19.20;89.40;;;;;;5049030;28;20110;-71
2022/09/12 14:40:48;;;;;;;6.57;1.40;;;19.20;89.40;;;;;;5031974;28;20032;-71
2022/09/12 14:43:27;;;;;;;1.40;1.30;;;19.20;89.40;;;;;;5050138;28;20064;-71
2022/09/12 14:46:06;;;;;;;1.40;1.30;;;19.20;89.40;;;;;;5042358;28;20025;-69
2022/09/12 14:48:35;;;;;;;4.28;1.33;;;19.20;88.90;;;;;;5031754;28;20021;-70
2022/09/12 14:51:01;;;;;;;2.50;1.70;;;19.30;88.60;;;;;;5031010;28;20025;-69
2022/09/12 14:53:36;;;;;;;1.95;1.27;;;19.30;88.60;;;;;;5049475;28;20041;-69
2022/09/12 14:56:11;;;;;;;8.93;4.13;;;19.30;88.60;;;;;;5048554;28;20032;-69
2022/09/12 14:58:38;;;;;;;7.97;2.40;;;19.30;88.60;;;;;;5049419;28;20025;-69
2022/09/12 15:01:04;;;;;;;2.22;1.60;;;19.30;88.60;;;;;;5049215;28;20044;-69
2022/09/12 15:03:44;;;;;;;1.40;1.30;;;19.30;88.70;;;;;;5049412;28;20036;-70
2022/09/12 15:06:29;;;;;;;1.38;1.10;;;19.30;88.80;;;;;;5040934;28;20502;-70
2022/09/12 15:08:58;;;;;;;1.40;1.30;;;19.20;88.70;;;;;;5049398;28;20033;-69
2022/09/12 15:11:24;;;;;;;1.40;1.30;;;19.20;88.70;;;;;;5049142;28;20538;-69
2022/09/12 15:13:49;;;;;;;1.30;1.20;;;19.20;88.70;;;;;;5049567;28;20092;-69
2022/09/12 15:16:15;;;;;;;1.90;1.30;;;19.20;88.60;;;;;;5051780;28;20025;-70
2022/09/12 15:18:41;;;;;;;2.83;1.40;;;19.20;88.60;;;;;;5052827;28;20048;-69
2022/09/12 15:21:15;;;;;;;1.35;1.17;;;19.20;88.60;;;;;;5052318;28;20037;-70
2022/09/12 15:23:45;;;;;;;1.40;1.30;;;19.20;88.50;;;;;;5053676;28;20029;-69
2022/09/12 15:26:12;;;;;;;;;;;19.30;88.70;;;;;;5053115;28;20052;-70
2022/09/12 15:28:38;;;;;;;4.50;1.25;;;19.20;88.70;;;;;;5053085;28;20401;-70
2022/09/12 15:31:14;;;;;;;2.60;1.42;;;19.20;88.60;;;;;;5053601;28;20025;-69
2022/09/12 15:33:40;;;;;;;1.55;1.10;;;19.20;88.60;;;;;;5053004;28;20025;-70
2022/09/12 15:36:17;;;;;;;1.52;1.17;;;19.20;88.60;;;;;;5051255;28;20340;-69
2022/09/12 15:38:44;;;;;;;1.20;1.10;;;19.20;88.50;;;;;;5052744;28;20104;-69
2022/09/12 15:41:13;;;;;;;2.28;1.80;;;19.20;88.40;;;;;;5053686;28;20075;-70
2022/09/12 15:43:39;;;;;;;1.33;1.20;;;19.20;88.40;;;;;;5053614;28;20021;-69
2022/09/12 15:46:05;;;;;;;2.42;1.42;;;19.20;88.40;;;;;;5052071;28;20117;-70
2022/09/12 15:48:32;;;;;;;1.27;1.13;;;19.20;88.50;;;;;;5052852;28;20681;-70
2022/09/12 15:51:00;;;;;;;1.95;1.35;;;19.20;88.30;;;;;;5049828;28;20033;-69
2022/09/12 15:53:26;;;;;;;1.20;1.10;;;19.20;88.40;;;;;;5049373;28;20048;-69
2022/09/12 15:55:52;;;;;;;1.30;1.20;;;19.20;88.40;;;;;;5036591;28;20587;-69
2022/09/12 15:58:17;;;;;;;2.75;1.27;;;19.20;88.30;;;;;;5052537;28;20329;-69
2022/09/12 16:00:43;;;;;;;1.60;1.17;;;19.20;88.40;;;;;;5052397;28;20033;-70
2022/09/12 16:03:24;;;;;;;4.75;1.30;;;19.20;88.50;;;;;;5034983;28;20043;-69
2022/09/12 16:05:55;;;;;;;1.23;1.13;;;19.20;88.50;;;;;;5051870;28;20031;-69
2022/09/12 16:08:20;;;;;;;1.98;1.25;;;19.20;88.50;;;;;;5048032;28;20021;-69
2022/09/12 16:10:51;;;;;;;1.75;1.20;;;19.20;88.70;;;;;;5052819;28;20021;-69
2022/09/12 16:13:17;;;;;;;2.13;1.25;;;19.20;88.70;;;;;;5034276;28;20025;-69
2022/09/12 16:15:42;;;;;;;5.10;1.55;;;19.20;88.60;;;;;;5052324;28;20355;-69
2022/09/12 16:18:08;;;;;;;1.38;1.20;;;19.20;88.50;;;;;;5051486;28;20037;-70
2022/09/12 16:20:34;;;;;;;2.95;1.23;;;19.20;88.40;;;;;;5052112;28;20432;-70
2022/09/12 16:22:59;;;;;;;2.00;1.10;;;19.20;88.50;;;;;;5051307;28;20020;-69
2022/09/12 16:25:25;;;;;;;2.35;1.02;;;19.20;88.50;;;;;;5052245;28;20230;-69
2022/09/12 16:27:51;;;;;;;1.80;1.30;;;19.20;88.50;;;;;;5050847;28;20659;-70
2022/09/12 16:30:16;;;;;;;2.50;1.30;;;19.20;88.50;;;;;;5052413;28;20107;-69
2022/09/12 16:32:42;;;;;;;1.40;1.27;;;19.10;88.50;;;;;;5052203;28;20029;-69
2022/09/12 16:35:08;;;;;;;1.65;1.30;;;19.20;88.60;;;;;;5052211;28;20025;-69
2022/09/12 16:37:34;;;;;;;1.70;1.23;;;19.20;88.50;;;;;;5050106;28;20048;-70
2022/09/12 16:40:01;;;;;;;1.30;1.20;;;19.20;88.50;;;;;;5051719;28;20548;-69
2022/09/12 16:42:26;;;;;;;1.50;1.17;;;19.10;88.40;;;;;;5051519;28;20068;-69
2022/09/12 16:44:52;;;;;;;4.53;3.42;;;19.10;88.50;;;;;;5033314;28;20033;-69
2022/09/12 16:47:17;;;;;;;5.03;2.00;;;19.20;88.50;;;;;;5050803;28;20067;-69
2022/09/12 16:49:43;;;;;;;3.55;1.63;;;19.10;88.60;;;;;;5051539;28;20017;-69
2022/09/12 16:52:10;;;;;;;1.70;1.55;;;19.10;88.60;;;;;;5032582;28;20029;-70
2022/09/12 16:54:35;;;;;;;1.65;1.48;;;19.10;88.70;;;;;;5051792;28;20045;-70
2022/09/12 16:57:03;;;;;;;5.70;3.03;;;19.20;88.70;;;;;;5050570;28;20096;-69
2022/09/12 16:59:29;;;;;;;6.55;3.22;;;19.10;88.70;;;;;;5034004;28;20045;-69
2022/09/12 17:01:55;;;;;;;2.60;1.50;;;19.10;88.80;;;;;;5052159;28;20371;-69
2022/09/12 17:04:21;;;;;;;4.45;1.92;;;19.10;88.90;;;;;;5033977;28;20047;-69
2022/09/12 17:06:46;;;;;;;2.00;1.75;;;19.10;88.90;;;;;;5049729;28;20025;-69
2022/09/12 17:09:17;;;;;;;3.80;2.25;;;19.10;89.00;;;;;;5051463;28;20036;-69
2022/09/12 17:11:43;;;;;;;6.45;3.67;;;19.10;89.10;;;;;;5051061;28;20051;-69
2022/09/12 17:14:09;;;;;;;5.15;2.65;;;19.10;89.10;;;;;;5051472;28;20094;-69
2022/09/12 17:16:38;;;;;;;2.80;1.80;;;19.10;89.20;;;;;;5050724;28;20025;-69
2022/09/12 17:19:04;;;;;;;3.60;1.83;;;19.10;89.20;;;;;;5051229;28;20339;-69
2022/09/12 17:21:31;;;;;;;2.17;1.58;;;19.10;89.30;;;;;;5050524;28;20036;-70
2022/09/12 17:23:58;;;;;;;4.50;2.10;;;19.10;89.30;;;;;;5051055;28;20108;-70
2022/09/12 17:26:24;;;;;;;4.43;2.00;;;19.10;89.30;;;;;;5050300;28;20105;-68
2022/09/12 17:28:49;;;;;;;1.90;1.77;;;19.10;89.40;;;;;;5050941;28;20028;-69
2022/09/12 17:31:16;;;;;;;2.65;1.65;;;19.10;89.40;;;;;;5051028;28;20021;-69
2022/09/12 17:33:41;;;;;;;2.35;1.58;;;19.10;89.50;;;;;;5050804;28;20029;-69
2022/09/12 17:36:10;;;;;;;3.08;1.50;;;19.10;89.50;;;;;;5050160;28;20024;-69
2022/09/12 17:38:38;;;;;;;6.10;1.52;;;19.10;89.50;;;;;;5040796;28;20028;-69
2022/09/12 17:41:19;;;;;;;3.72;1.50;;;19.10;89.50;;;;;;5032827;28;20037;-69
2022/09/12 17:43:49;;;;;;;1.45;1.15;;;19.10;89.50;;;;;;5050806;28;20032;-69
2022/09/12 17:46:18;;;;;;;3.38;1.70;;;19.00;89.40;;;;;;5050158;28;20036;-68
2022/09/12 17:48:44;;;;;;;3.90;1.85;;;19.00;89.40;;;;;;5050639;28;20029;-69
2022/09/12 17:51:14;;;;;;;2.60;1.83;;;19.00;89.40;;;;;;5051031;28;20020;-69
2022/09/12 17:53:42;;;;;;;1.45;1.35;;;19.00;90.10;;;;;;5049250;28;20047;-69
2022/09/12 17:56:09;;;;;;;2.55;2.00;;;19.00;89.40;;;;;;5049619;28;20100;-71
2022/09/12 17:58:35;;;;;;;2.67;1.98;;;19.00;89.40;;;;;;5050434;28;20402;-69
2022/09/12 18:03:47;;;;;;;3.75;1.63;;;19.00;89.40;;;;;;5049987;28;20027;-68
2022/09/12 18:06:13;;;;;;;2.50;1.88;;;19.00;89.40;;;;;;5049475;28;20025;-69
2022/09/12 18:08:39;;;;;;;2.03;1.58;;;19.00;89.40;;;;;;5049067;28;20458;-69
2022/09/12 18:11:06;;;;;;;3.60;1.95;;;19.00;89.40;;;;;;5050193;28;20027;-69
2022/09/12 18:13:32;;;;;;;5.72;1.70;;;19.00;89.40;;;;;;5050595;28;20024;-69
2022/09/12 18:16:06;;;;;;;2.40;1.70;;;19.00;89.40;;;;;;5049342;28;20389;-70
2022/09/12 18:18:33;;;;;;;6.18;1.92;;;18.90;89.30;;;;;;5049821;28;20059;-73
2022/09/12 18:20:59;;;;;;;4.15;2.40;;;19.00;89.50;;;;;;5030430;28;20033;-69
2022/09/12 18:23:25;;;;;;;2.55;1.80;;;18.90;89.40;;;;;;5043551;28;20021;-69
2022/09/12 18:26:05;;;;;;;3.47;2.25;;;18.90;89.40;;;;;;5049667;28;20029;-70
2022/09/12 18:28:32;;;;;;;3.50;2.10;;;18.90;89.40;;;;;;5031992;28;20049;-69
2022/09/12 18:30:58;;;;;;;4.95;2.15;;;18.90;89.50;;;;;;5050118;28;20055;-69
2022/09/12 18:33:23;;;;;;;3.63;1.92;;;18.90;89.40;;;;;;5050147;28;20470;-69
2022/09/12 18:35:49;;;;;;;2.53;1.80;;;18.90;89.50;;;;;;5032364;28;20028;-69
2022/09/12 18:38:15;;;;;;;2.65;2.13;;;18.90;89.50;;;;;;5043175;28;20510;-69
2022/09/12 18:40:41;;;;;;;5.28;2.17;;;18.90;89.50;;;;;;5049868;28;20482;-69
2022/09/12 18:43:06;;;;;;;6.38;2.47;;;18.90;89.60;;;;;;5049760;28;20045;-69
2022/09/12 18:45:33;;;;;;;3.50;2.30;;;18.80;89.50;;;;;;5049833;28;20025;-69
2022/09/12 18:47:59;;;;;;;8.77;2.03;;;18.80;89.50;;;;;;5049436;28;20032;-69
2022/09/12 18:50:24;;;;;;;6.50;2.03;;;18.80;89.60;;;;;;5049199;28;20017;-69
2022/09/12 18:52:53;;;;;;;3.33;2.25;;;18.80;89.60;;;;;;5049132;28;20355;-69
2022/09/12 18:55:19;;;;;;;4.65;2.10;;;18.80;89.60;;;;;;5024420;28;20013;-69
2022/09/12 18:57:45;;;;;;;5.70;2.30;;;18.80;89.70;;;;;;5048792;28;20021;-69
2022/09/12 19:00:12;;;;;;;3.33;2.50;;;18.80;89.70;;;;;;5049821;28;20139;-69
2022/09/12 19:02:38;;;;;;;8.73;2.50;;;18.80;89.70;;;;;;5050046;28;20013;-68
2022/09/12 19:05:04;;;;;;;3.85;2.35;;;18.80;89.80;;;;;;5050066;28;20490;-69
2022/09/12 19:14:24;;;;;;;2.95;2.10;;;18.70;89.90;;;;;;1435174;26;20044;-66
2022/09/12 19:16:51;;;;;;;2.85;2.10;;;18.70;89.90;;;;;;5069446;28;20036;-66
2022/09/12 19:19:32;;;;;;;2.13;1.98;;;18.70;89.90;;;;;;5052999;28;20102;-66
2022/09/12 19:21:57;;;;;;;5.47;2.30;;;18.70;90.00;;;;;;5052948;28;20029;-67
2022/09/12 19:24:23;;;;;;;4.18;2.90;;;18.70;90.00;;;;;;5068713;28;20459;-66
2022/09/12 19:26:49;;;;;;;8.35;2.40;;;18.70;90.00;;;;;;5053942;28;20423;-66
2022/09/12 19:29:16;;;;;;;4.97;2.42;;;18.70;90.40;;;;;;5056569;28;20420;-66
2022/09/12 19:31:42;;;;;;;12.73;5.43;;;18.70;90.00;;;;;;5056795;28;20028;-66
2022/09/12 19:34:10;;;;;;;9.52;4.28;;;18.70;90.10;;;;;;5057790;28;20123;-66
2022/09/12 19:36:36;;;;;;;12.02;3.28;;;18.60;90.00;;;;;;5059993;28;20039;-66
2022/09/12 19:39:03;;;;;;;4.25;2.45;;;18.60;90.00;;;;;;5058673;28;20025;-66
2022/09/12 19:41:33;;;;;;;3.92;2.97;;;18.60;90.00;;;;;;5053924;28;20429;-66
2022/09/12 19:43:59;;;;;;;3.20;2.47;;;18.60;90.10;;;;;;5057708;28;20086;-66
2022/09/12 19:46:25;;;;;;;7.55;2.60;;;18.60;90.10;;;;;;5058595;28;20163;-66
2022/09/12 19:48:51;;;;;;;3.63;2.45;;;18.60;90.10;;;;;;5054228;28;20023;-66
2022/09/12 19:54:46;;;;;;;9.38;3.13;;;18.60;90.10;;;;;;5061513;28;20051;-65